Time;durP1;ratioP1;P1;durP2;ratioP2;P2;SDS_P1;SDS_P2;PMS_P1;PMS_P2;Temp;Humidity;BMP_temperature;BMP_pressure;BME280_temperature;BME280_humidity;BME280_pressure;Samples;Min_cycle;Max_cycle;Signal;HPM_P1;HPM_P2
2022/10/12 00:01:44;;;;;;;10.53;3.77;;;;;;;17.75;45.66;100477.25;4148332;28;20224;-64
2022/10/12 00:03:45;;;;;;;5.23;3.60;;;;;;;18.32;44.73;100446.00;4142486;28;20234;-64
2022/10/12 00:05:58;;;;;;;6.87;3.40;;;;;;;18.06;44.61;100476.16;4149161;28;20240;-64
2022/10/12 00:07:59;;;;;;;12.33;3.83;;;;;;;18.21;44.93;100453.56;4155049;28;20704;-64
2022/10/12 00:10:01;;;;;;;6.53;3.17;;;;;;;17.84;45.37;100474.25;4148344;28;20323;-64
2022/10/12 00:12:03;;;;;;;7.80;3.73;;;;;;;16.85;46.51;100530.13;4150184;28;20611;-64
2022/10/12 00:14:05;;;;;;;7.67;3.37;;;;;;;17.44;46.18;100473.75;4143460;28;20807;-64
2022/10/12 00:16:08;;;;;;;9.17;3.87;;;;;;;16.75;46.42;100503.50;4147849;28;20637;-64
2022/10/12 00:18:10;;;;;;;9.43;3.43;;;;;;;17.57;45.89;100448.91;4159733;28;20229;-64
2022/10/12 00:20:12;;;;;;;8.33;3.90;;;;;;;17.90;45.08;100448.44;4147538;28;20225;-64
2022/10/12 00:22:13;;;;;;;10.10;3.57;;;;;;;17.12;46.33;100483.00;4142041;28;20228;-64
2022/10/12 00:24:15;;;;;;;11.03;3.50;;;;;;;17.75;45.18;100442.28;4144878;28;20308;-64
2022/10/12 00:26:20;;;;;;;10.60;3.60;;;;;;;17.07;45.80;100501.53;4151686;28;20307;-64
2022/10/12 00:28:22;;;;;;;6.43;4.00;;;;;;;17.69;45.34;100454.63;4140070;28;20256;-64
2022/10/12 00:30:23;;;;;;;9.87;3.60;;;;;;;17.33;45.83;100474.25;4156082;28;20220;-64
2022/10/12 00:32:25;;;;;;;8.53;3.87;;;;;;;17.36;45.87;100455.06;4152202;28;20788;-64
2022/10/12 00:34:26;;;;;;;8.23;3.70;;;;;;;17.50;45.06;100458.75;4152243;28;20228;-63
2022/10/12 00:36:32;;;;;;;6.87;3.27;;;;;;;17.48;45.14;100464.31;4150128;28;20224;-64
2022/10/12 00:38:34;;;;;;;7.83;3.43;;;;;;;16.99;45.84;100489.03;4147946;28;20254;-64
2022/10/12 00:40:36;;;;;;;9.80;3.00;;;;;;;17.21;45.83;100473.84;4148517;28;20257;-64
2022/10/12 00:42:37;;;;;;;6.67;3.57;;;;;;;17.07;45.88;100490.78;4152503;28;20873;-64
2022/10/12 00:44:42;;;;;;;10.13;3.40;;;;;;;17.03;45.90;100494.88;4151089;28;20260;-63
2022/10/12 00:46:45;;;;;;;8.10;3.50;;;;;;;17.05;45.21;100500.88;4145901;28;20244;-64
2022/10/12 00:48:53;;;;;;;13.13;3.80;;;;;;;16.48;46.33;100521.84;4150213;28;20237;-64
2022/10/12 00:50:56;;;;;;;9.60;3.83;;;;;;;17.22;45.73;100464.75;4145224;28;20229;-64
2022/10/12 00:53:04;;;;;;;6.80;3.30;;;;;;;17.27;45.49;100473.09;4157970;28;20684;-64
2022/10/12 00:55:09;;;;;;;6.03;3.10;;;;;;;17.57;44.69;100467.72;4160551;28;20231;-63
2022/10/12 00:57:13;;;;;;;9.93;3.57;;;;;;;17.56;44.83;100467.91;4154285;28;20848;-64
2022/10/12 00:59:25;;;;;;;8.87;3.80;;;;;;;17.26;45.30;100484.88;4143180;28;20783;-64
2022/10/12 01:01:28;;;;;;;9.97;3.20;;;;;;;17.56;45.13;100462.53;4142464;28;20324;-64
2022/10/12 01:03:31;;;;;;;9.77;3.53;;;;;;;17.09;45.32;100496.81;4142199;28;20241;-64
2022/10/12 01:05:32;;;;;;;6.80;3.47;;;;;;;17.28;45.58;100480.19;4153102;28;20233;-63
2022/10/12 01:07:34;;;;;;;9.57;3.67;;;;;;;15.88;47.20;100541.28;4147903;28;20304;-64
2022/10/12 01:09:36;;;;;;;7.63;3.63;;;;;;;16.71;46.23;100494.97;4155884;28;20229;-64
2022/10/12 01:11:38;;;;;;;9.57;3.87;;;;;;;16.58;46.24;100507.34;4150370;28;20727;-64
2022/10/12 01:13:39;;;;;;;7.93;3.07;;;;;;;16.49;46.74;100507.41;4141495;28;20233;-64
2022/10/12 01:15:53;;;;;;;11.27;3.43;;;;;;;16.45;47.03;100494.50;4141797;28;20235;-64
2022/10/12 01:17:59;;;;;;;9.73;3.50;;;;;;;16.13;47.07;100499.94;4158013;28;20258;-63
2022/10/12 01:20:19;;;;;;;9.07;3.87;;;;;;;16.28;47.15;100491.09;4146987;28;20225;-64
2022/10/12 01:22:21;;;;;;;8.63;3.60;;;;;;;15.74;47.70;100508.00;4140879;28;20221;-64
2022/10/12 01:25:14;;;;;;;8.17;3.57;;;;;;;16.22;47.37;100468.50;4150708;28;20221;-64
2022/10/12 01:27:40;;;;;;;10.27;4.00;;;;;;;16.48;46.72;100460.09;4136706;28;20238;-64
2022/10/12 01:30:07;;;;;;;6.90;3.40;;;;;;;17.05;45.81;100456.03;4137222;28;20237;-64
2022/10/12 01:32:20;;;;;;;11.27;4.00;;;;;;;16.74;46.04;100485.75;4144068;28;20312;-64
2022/10/12 01:34:38;;;;;;;8.73;3.77;;;;;;;16.11;47.27;100498.41;4129229;28;20225;-64
2022/10/12 01:37:01;;;;;;;9.17;3.70;;;;;;;16.72;46.88;100451.00;4133303;28;20313;-64
2022/10/12 01:39:15;;;;;;;7.13;3.93;;;;;;;16.58;46.82;100464.41;4156794;28;20309;-64
2022/10/12 01:41:19;;;;;;;6.40;3.33;;;;;;;16.43;47.05;100480.44;4155844;28;20309;-64
2022/10/12 01:43:22;;;;;;;6.30;3.47;;;;;;;16.50;47.10;100467.97;4137795;28;20239;-64
2022/10/12 01:45:24;;;;;;;7.77;3.90;;;;;;;16.26;47.38;100472.50;4144556;28;20856;-64
2022/10/12 01:47:25;;;;;;;9.37;4.13;;;;;;;16.50;46.96;100460.78;4151036;28;20233;-64
2022/10/12 01:49:31;;;;;;;5.70;3.37;;;;;;;16.86;46.73;100430.56;4155161;28;20231;-63
2022/10/12 01:51:59;;;;;;;6.87;3.50;;;;;;;16.25;47.87;100468.16;4146819;28;20232;-64
2022/10/12 01:54:27;;;;;;;9.83;3.70;;;;;;;16.77;46.95;100426.28;4151184;28;20239;-64
2022/10/12 01:56:38;;;;;;;15.00;4.27;;;;;;;16.25;47.54;100472.66;4136650;28;20602;-64
2022/10/12 01:59:06;;;;;;;10.50;3.60;;;;;;;16.02;47.40;100488.78;4151211;28;20233;-64
2022/10/12 02:01:27;;;;;;;7.20;3.90;;;;;;;16.96;46.60;100399.91;4146854;28;20225;-64
2022/10/12 02:03:43;;;;;;;10.10;3.93;;;;;;;16.70;47.11;100434.25;4151819;28;20267;-64
2022/10/12 02:06:18;;;;;;;11.43;4.00;;;;;;;16.95;46.44;100436.69;4146074;28;20404;-64
2022/10/12 02:08:32;;;;;;;10.83;4.40;;;;;;;16.10;47.30;100494.91;4141932;28;20229;-64
2022/10/12 02:10:41;;;;;;;7.10;3.70;;;;;;;16.80;46.70;100446.56;4144423;28;20239;-64
2022/10/12 02:12:44;;;;;;;7.73;4.33;;;;;;;16.94;46.37;100451.16;4151591;28;20681;-65
2022/10/12 02:14:52;;;;;;;10.03;4.20;;;;;;;17.70;45.04;100404.38;4138158;28;20237;-64
2022/10/12 02:17:03;;;;;;;10.20;4.07;;;;;;;16.71;46.82;100473.50;4136850;28;20229;-64
2022/10/12 02:19:09;;;;;;;8.17;3.70;;;;;;;17.25;45.63;100431.31;4155694;28;20260;-64
2022/10/12 02:21:14;;;;;;;9.13;3.43;;;;;;;17.62;45.52;100418.78;4145271;28;20308;-64
2022/10/12 02:23:17;;;;;;;7.87;4.07;;;;;;;16.32;47.14;100500.47;4154779;28;20236;-64
2022/10/12 02:25:24;;;;;;;6.67;3.50;;;;;;;16.88;47.27;100441.13;4138202;28;20236;-64
2022/10/12 02:27:27;;;;;;;11.10;4.43;;;;;;;17.11;46.45;100441.06;4151967;28;20239;-64
2022/10/12 02:29:35;;;;;;;10.70;4.30;;;;;;;17.25;45.81;100440.19;4148357;28;20323;-64
2022/10/12 02:31:45;;;;;;;6.70;3.77;;;;;;;17.52;45.83;100429.81;4145651;28;20619;-64
2022/10/12 02:33:59;;;;;;;9.13;3.90;;;;;;;16.50;47.21;100490.31;4156586;28;20303;-64
2022/10/12 02:36:18;;;;;;;9.80;3.53;;;;;;;16.41;47.22;100501.25;4150929;28;20319;-64
2022/10/12 02:38:31;;;;;;;8.10;3.67;;;;;;;16.31;47.69;100469.28;4133492;28;20264;-64
2022/10/12 02:40:47;;;;;;;10.53;3.47;;;;;;;17.14;46.17;100435.28;4152259;28;20235;-64
2022/10/12 02:42:53;;;;;;;8.30;4.00;;;;;;;17.29;46.01;100444.22;4148470;28;20240;-64
2022/10/12 02:45:14;;;;;;;7.00;3.80;;;;;;;16.85;46.28;100474.53;4137366;28;20319;-65
2022/10/12 02:47:16;;;;;;;6.37;3.57;;;;;;;17.17;46.15;100451.03;4145180;28;20239;-64
2022/10/12 02:49:20;;;;;;;8.17;3.67;;;;;;;17.36;45.66;100454.22;4155406;28;20225;-65
2022/10/12 02:51:22;;;;;;;8.80;3.80;;;;;;;17.18;45.80;100484.97;4152515;28;20255;-65
2022/10/12 02:53:26;;;;;;;9.07;3.60;;;;;;;17.01;45.61;100483.44;4158353;28;20237;-64
2022/10/12 02:55:29;;;;;;;12.27;4.00;;;;;;;16.99;46.15;100477.44;4149879;28;20323;-64
2022/10/12 02:57:31;;;;;;;12.20;5.20;;;;;;;17.09;45.72;100475.31;4147539;28;20334;-64
2022/10/12 02:59:32;;;;;;;9.80;3.57;;;;;;;17.20;45.53;100463.28;4147240;28;20276;-64
2022/10/12 03:01:34;;;;;;;9.17;3.70;;;;;;;17.18;45.56;100470.72;4148681;28;20243;-64
2022/10/12 03:03:36;;;;;;;10.73;3.53;;;;;;;17.22;45.52;100459.38;4158305;28;20245;-64
2022/10/12 03:05:38;;;;;;;8.33;4.23;;;;;;;16.09;47.10;100506.66;4148664;28;20330;-64
2022/10/12 03:07:39;;;;;;;8.17;3.50;;;;;;;17.11;45.47;100457.19;4147824;28;21026;-64
2022/10/12 03:09:41;;;;;;;7.13;3.63;;;;;;;16.62;45.85;100506.81;4151791;28;20599;-64
2022/10/12 03:11:43;;;;;;;8.20;4.10;;;;;;;17.26;45.35;100459.84;4153224;28;20592;-64
2022/10/12 03:13:45;;;;;;;12.27;4.23;;;;;;;17.22;45.39;100451.31;4144886;28;20229;-65
2022/10/12 03:15:46;;;;;;;6.90;3.87;;;;;;;16.73;46.01;100494.81;4140572;28;20259;-64
2022/10/12 03:17:48;;;;;;;6.97;3.60;;;;;;;17.33;45.55;100444.69;4147231;28;20233;-64
2022/10/12 03:19:49;;;;;;;10.10;3.63;;;;;;;16.87;46.33;100474.38;4150233;28;20312;-64
2022/10/12 03:21:51;;;;;;;7.67;3.40;;;;;;;16.13;47.23;100517.84;4146084;28;20319;-64
2022/10/12 03:23:53;;;;;;;8.60;3.63;;;;;;;16.86;46.47;100465.47;4144165;28;20229;-64
2022/10/12 03:25:55;;;;;;;13.40;4.33;;;;;;;17.37;45.44;100440.59;4145193;28;20237;-65
2022/10/12 03:27:56;;;;;;;8.77;3.80;;;;;;;17.80;44.48;100424.56;4156219;28;20229;-65
2022/10/12 03:29:58;;;;;;;11.23;4.13;;;;;;;18.04;43.93;100447.56;4150773;28;20342;-65
2022/10/12 03:31:59;;;;;;;7.73;3.97;;;;;;;17.53;44.61;100487.09;4130086;28;20681;-65
2022/10/12 03:34:01;;;;;;;9.00;4.10;;;;;;;17.74;44.79;100467.53;4128749;28;20778;-65
2022/10/12 03:36:03;;;;;;;6.43;3.30;;;;;;;17.78;44.63;100461.56;4128889;28;20229;-67
2022/10/12 03:38:04;;;;;;;9.13;3.80;;;;;;;18.21;44.09;100436.59;4130902;28;20321;-66
2022/10/12 03:40:06;;;;;;;7.87;4.17;;;;;;;17.04;45.74;100520.69;4130540;28;20256;-66
2022/10/12 03:42:09;;;;;;;10.47;4.20;;;;;;;17.40;45.03;100494.00;4125199;28;20232;-66
2022/10/12 03:44:11;;;;;;;9.47;4.33;;;;;;;17.84;44.30;100466.19;4139128;28;20324;-69
2022/10/12 03:46:13;;;;;;;10.27;3.90;;;;;;;17.90;44.04;100472.66;4143443;28;20320;-66
2022/10/12 03:48:15;;;;;;;8.03;3.67;;;;;;;17.66;44.12;100504.25;4142064;28;20237;-65
2022/10/12 03:50:16;;;;;;;12.23;4.17;;;;;;;17.60;44.19;100526.53;4154203;28;20308;-65
2022/10/12 03:52:18;;;;;;;12.37;4.53;;;;;;;17.73;43.78;100522.34;4140072;28;20243;-65
2022/10/12 03:54:19;;;;;;;11.57;4.60;;;;;;;17.51;44.65;100524.13;4133249;28;20231;-65
2022/10/12 03:56:21;;;;;;;8.10;3.53;;;;;;;17.47;44.88;100521.78;4128251;28;20234;-65
2022/10/12 03:58:23;;;;;;;8.17;4.13;;;;;;;18.18;43.52;100480.88;4141891;28;20584;-64
2022/10/12 04:00:25;;;;;;;10.60;4.20;;;;;;;17.55;44.35;100520.00;4145908;28;20230;-65
2022/10/12 04:02:26;;;;;;;11.57;3.40;;;;;;;17.56;44.80;100513.63;4142395;28;20339;-64
2022/10/12 04:04:28;;;;;;;9.10;3.70;;;;;;;17.64;44.32;100524.28;4144031;28;20222;-65
2022/10/12 04:06:29;;;;;;;12.13;4.00;;;;;;;17.62;43.73;100537.94;4139124;28;20229;-65
2022/10/12 04:08:31;;;;;;;7.47;3.80;;;;;;;17.31;44.55;100546.16;4149126;28;20238;-65
2022/10/12 04:10:33;;;;;;;14.43;4.80;;;;;;;16.74;45.14;100566.31;4148737;28;20261;-65
2022/10/12 04:12:34;;;;;;;8.17;4.20;;;;;;;17.12;44.61;100552.88;4149073;28;22879;-64
2022/10/12 04:14:36;;;;;;;8.60;3.50;;;;;;;16.82;45.01;100560.03;4145725;28;20232;-65
2022/10/12 04:16:37;;;;;;;5.23;3.50;;;;;;;17.19;44.68;100532.31;4152888;28;20232;-65
2022/10/12 04:18:39;;;;;;;8.40;4.20;;;;;;;17.26;44.52;100522.50;4160624;28;20740;-65
2022/10/12 04:20:40;;;;;;;6.20;3.67;;;;;;;17.06;44.90;100546.38;4155388;28;20237;-65
2022/10/12 04:22:42;;;;;;;10.63;3.90;;;;;;;17.37;44.59;100521.22;4154393;28;20236;-65
2022/10/12 04:24:44;;;;;;;9.23;4.13;;;;;;;17.65;43.84;100507.16;4153290;28;20322;-64
2022/10/12 04:26:45;;;;;;;5.87;3.40;;;;;;;17.52;44.11;100523.09;4151440;28;20239;-63
2022/10/12 04:28:47;;;;;;;11.50;4.00;;;;;;;17.39;44.11;100529.13;4152572;28;20331;-63
2022/10/12 04:30:48;;;;;;;7.17;3.60;;;;;;;17.61;44.11;100521.97;4157197;28;20245;-63
2022/10/12 04:32:51;;;;;;;9.57;3.50;;;;;;;17.15;44.77;100549.81;4157086;28;20616;-63
2022/10/12 04:34:52;;;;;;;7.70;4.00;;;;;;;17.50;44.33;100531.34;4153066;28;20323;-63
2022/10/12 04:36:54;;;;;;;9.67;4.00;;;;;;;17.32;44.44;100544.31;4135472;28;20245;-63
2022/10/12 04:38:55;;;;;;;10.40;3.63;;;;;;;16.76;45.39;100561.59;4143081;28;20332;-64
2022/10/12 04:41:01;;;;;;;7.57;3.90;;;;;;;17.37;44.44;100531.16;4153749;28;20233;-63
2022/10/12 04:43:03;;;;;;;9.03;3.90;;;;;;;17.41;44.46;100535.13;4152404;28;20243;-63
2022/10/12 04:45:05;;;;;;;7.57;3.47;;;;;;;17.17;44.43;100574.66;4141510;28;20237;-63
2022/10/12 04:47:07;;;;;;;7.43;4.17;;;;;;;17.37;44.10;100542.75;4145069;28;20252;-63
2022/10/12 04:49:09;;;;;;;7.57;3.20;;;;;;;16.93;44.87;100589.16;4146494;28;20263;-63
2022/10/12 04:51:11;;;;;;;6.33;3.60;;;;;;;17.48;43.93;100542.28;4147034;28;21041;-63
2022/10/12 04:53:12;;;;;;;7.73;3.90;;;;;;;16.65;45.20;100599.59;4149344;28;20705;-63
2022/10/12 04:55:14;;;;;;;8.93;3.97;;;;;;;17.65;44.03;100531.34;4160313;28;20259;-63
2022/10/12 04:57:15;;;;;;;8.57;4.03;;;;;;;17.36;44.65;100565.28;4152110;28;20299;-63
2022/10/12 04:59:17;;;;;;;6.73;3.60;;;;;;;17.47;44.17;100546.00;4157346;28;20920;-63
2022/10/12 05:01:19;;;;;;;8.83;4.00;;;;;;;17.36;44.66;100551.84;4143673;28;20229;-63
2022/10/12 05:03:20;;;;;;;7.23;3.23;;;;;;;16.48;45.73;100604.22;4159684;28;20703;-63
2022/10/12 05:05:22;;;;;;;6.03;3.17;;;;;;;16.66;46.29;100587.84;4151484;28;20850;-63
2022/10/12 05:07:23;;;;;;;6.33;3.53;;;;;;;16.30;46.92;100599.09;4150151;28;21033;-63
2022/10/12 05:09:25;;;;;;;11.67;4.13;;;;;;;17.24;45.67;100531.75;4146574;28;20778;-63
2022/10/12 05:11:27;;;;;;;7.90;4.17;;;;;;;17.50;44.85;100515.22;4150711;28;20236;-63
2022/10/12 05:13:28;;;;;;;9.50;3.43;;;;;;;16.93;45.73;100571.16;4150096;28;20993;-63
2022/10/12 05:15:30;;;;;;;7.47;3.33;;;;;;;17.21;45.79;100535.66;4142182;28;20232;-63
2022/10/12 05:17:31;;;;;;;9.23;3.83;;;;;;;17.20;45.74;100542.03;4155266;28;20254;-63
2022/10/12 05:19:33;;;;;;;8.93;4.00;;;;;;;16.92;45.92;100557.91;4158293;28;20240;-64
2022/10/12 05:21:35;;;;;;;8.70;3.80;;;;;;;17.52;45.30;100504.28;4149200;28;20644;-65
2022/10/12 05:23:36;;;;;;;8.87;3.87;;;;;;;16.71;46.76;100570.19;4149783;28;20578;-63
2022/10/12 05:25:38;;;;;;;11.43;3.40;;;;;;;17.51;44.97;100513.34;4155256;28;20334;-63
2022/10/12 05:27:39;;;;;;;8.57;3.53;;;;;;;16.67;46.71;100570.69;4148608;28;20316;-63
2022/10/12 05:29:41;;;;;;;6.27;3.73;;;;;;;16.89;46.24;100558.28;4156743;28;20760;-63
2022/10/12 05:31:43;;;;;;;7.63;4.00;;;;;;;16.91;45.92;100548.22;4140700;28;20237;-63
2022/10/12 05:33:44;;;;;;;7.43;3.93;;;;;;;16.67;46.62;100560.81;4154572;28;20993;-63
2022/10/12 05:35:47;;;;;;;11.53;3.77;;;;;;;16.86;46.55;100540.69;4149458;28;20317;-64
2022/10/12 05:37:55;;;;;;;5.87;3.30;;;;;;;16.64;46.62;100558.50;4143470;28;20621;-64
2022/10/12 05:39:56;;;;;;;9.90;3.20;;;;;;;17.24;45.87;100505.72;4152812;28;20904;-64
2022/10/12 05:41:58;;;;;;;6.17;3.43;;;;;;;17.72;45.10;100489.22;4149556;28;20220;-64
2022/10/12 05:43:59;;;;;;;7.00;3.40;;;;;;;17.38;45.67;100517.53;4138571;28;20226;-64
2022/10/12 05:46:01;;;;;;;11.37;3.77;;;;;;;17.32;46.18;100512.91;4143611;28;20233;-64
2022/10/12 05:48:03;;;;;;;5.37;3.50;;;;;;;17.32;45.82;100523.66;4144026;28;20328;-63
2022/10/12 05:50:05;;;;;;;8.20;3.67;;;;;;;18.23;44.33;100471.41;4150453;28;20264;-64
2022/10/12 05:52:06;;;;;;;14.17;3.63;;;;;;;17.99;44.51;100489.53;4157169;28;20313;-64
2022/10/12 05:54:08;;;;;;;8.47;3.40;;;;;;;17.13;45.54;100564.44;4154653;28;20319;-64
2022/10/12 05:56:10;;;;;;;7.87;3.33;;;;;;;17.82;45.23;100497.84;4146725;28;20304;-63
2022/10/12 05:58:11;;;;;;;8.50;3.43;;;;;;;17.84;45.00;100505.72;4156773;28;20890;-64
2022/10/12 06:00:13;;;;;;;14.03;4.43;;;;;;;17.03;46.40;100560.19;4146671;28;20732;-64
2022/10/12 06:02:16;;;;;;;5.67;3.27;;;;;;;17.60;45.17;100533.78;4146507;28;20752;-63
2022/10/12 06:04:18;;;;;;;8.47;3.37;;;;;;;17.94;44.67;100516.19;4139102;28;20225;-64
2022/10/12 06:06:20;;;;;;;10.03;3.47;;;;;;;17.89;44.61;100515.94;4143995;28;20256;-64
2022/10/12 06:08:22;;;;;;;10.37;3.43;;;;;;;17.43;45.26;100544.69;4142450;28;20242;-64
2022/10/12 06:10:24;;;;;;;9.83;3.93;;;;;;;18.21;43.87;100504.72;4143992;28;20239;-64
2022/10/12 06:12:30;;;;;;;7.10;3.70;;;;;;;18.20;43.52;100526.44;4144421;28;20292;-64
2022/10/12 06:14:32;;;;;;;9.67;3.90;;;;;;;17.46;44.76;100578.44;4142242;28;20232;-64
2022/10/12 06:16:33;;;;;;;7.57;3.87;;;;;;;17.86;44.50;100554.78;4150232;28;20780;-64
2022/10/12 06:18:35;;;;;;;6.70;3.53;;;;;;;18.02;44.17;100538.44;4148977;28;20244;-65
2022/10/12 06:20:36;;;;;;;10.30;4.10;;;;;;;17.69;45.05;100559.53;4143186;28;20243;-63
2022/10/12 06:22:38;;;;;;;6.73;3.50;;;;;;;17.23;45.75;100589.22;4150833;28;20581;-64
2022/10/12 06:24:40;;;;;;;7.60;3.73;;;;;;;17.83;44.82;100536.31;4148357;28;20670;-64
2022/10/12 06:26:42;;;;;;;17.80;4.40;;;;;;;17.92;44.84;100545.97;4147948;28;20264;-64
2022/10/12 06:28:44;;;;;;;10.57;4.13;;;;;;;18.27;44.15;100516.56;4155547;28;20243;-64
2022/10/12 06:30:51;;;;;;;5.80;3.67;;;;;;;18.17;44.08;100532.19;4154546;28;20291;-63
2022/10/12 06:32:53;;;;;;;9.73;3.47;;;;;;;17.37;45.39;100590.31;4153511;28;20225;-64
2022/10/12 06:34:54;;;;;;;11.23;4.17;;;;;;;17.50;45.72;100579.75;4150315;28;20229;-64
2022/10/12 06:36:56;;;;;;;8.70;3.53;;;;;;;17.65;45.43;100556.38;4142011;28;20317;-63
2022/10/12 06:39:02;;;;;;;10.63;4.00;;;;;;;17.35;46.33;100568.97;4151269;28;20240;-64
2022/10/12 06:41:04;;;;;;;11.57;3.97;;;;;;;17.81;45.05;100549.13;4151189;28;20527;-64
2022/10/12 06:43:05;;;;;;;8.43;4.00;;;;;;;17.21;45.96;100592.09;4156202;28;20232;-63
2022/10/12 06:45:07;;;;;;;8.53;3.97;;;;;;;17.65;45.29;100560.94;4151590;28;20235;-64
2022/10/12 06:47:09;;;;;;;10.63;4.40;;;;;;;17.66;45.56;100547.28;4148817;28;20236;-64
2022/10/12 06:49:11;;;;;;;7.47;3.70;;;;;;;16.96;46.78;100599.53;4142493;28;20722;-64
2022/10/12 06:51:12;;;;;;;6.13;3.80;;;;;;;16.74;47.77;100594.00;4152950;28;20284;-64
2022/10/12 06:53:14;;;;;;;8.40;3.57;;;;;;;17.98;45.32;100512.91;4158150;28;20255;-64
2022/10/12 06:55:15;;;;;;;8.47;4.07;;;;;;;17.94;45.29;100532.34;4151299;28;20331;-63
2022/10/12 06:57:17;;;;;;;9.63;4.27;;;;;;;17.90;45.27;100547.16;4143569;28;20317;-64
2022/10/12 06:59:19;;;;;;;5.63;3.80;;;;;;;18.06;45.06;100549.69;4145998;28;20316;-64
2022/10/12 07:01:20;;;;;;;6.93;4.07;;;;;;;17.63;45.73;100568.34;4150781;28;20229;-64
2022/10/12 07:03:22;;;;;;;8.43;4.07;;;;;;;17.10;46.31;100609.47;4145666;28;20257;-64
2022/10/12 07:05:24;;;;;;;9.50;3.70;;;;;;;18.14;45.29;100519.97;4149927;28;20243;-64
2022/10/12 07:07:28;;;;;;;11.10;4.30;;;;;;;18.59;44.55;100500.91;4150424;28;20240;-64
2022/10/12 07:09:30;;;;;;;11.83;4.10;;;;;;;18.91;43.92;100504.97;4149531;28;20323;-64
2022/10/12 07:11:32;;;;;;;8.73;4.07;;;;;;;18.62;44.50;100537.44;4148795;28;20264;-64
2022/10/12 07:13:34;;;;;;;10.17;5.23;;;;;;;18.48;44.98;100544.56;4154939;28;21024;-64
2022/10/12 07:15:36;;;;;;;11.10;4.10;;;;;;;18.06;45.71;100584.66;4141076;28;20724;-63
2022/10/12 07:17:37;;;;;;;10.60;4.10;;;;;;;18.50;44.79;100547.88;4144656;28;20244;-64
2022/10/12 07:19:39;;;;;;;8.60;4.33;;;;;;;18.01;45.33;100589.75;4154811;28;20320;-64
2022/10/12 07:21:41;;;;;;;10.70;4.73;;;;;;;17.96;46.36;100584.91;4155506;28;20307;-64
2022/10/12 07:23:42;;;;;;;8.67;4.17;;;;;;;18.77;44.84;100527.41;4150908;28;20229;-64
2022/10/12 07:25:48;;;;;;;9.60;4.43;;;;;;;18.91;44.92;100522.97;4150338;28;20237;-64
2022/10/12 07:27:50;;;;;;;10.53;4.47;;;;;;;18.37;45.12;100559.34;4152705;28;20593;-64
2022/10/12 07:29:51;;;;;;;10.73;4.27;;;;;;;18.32;44.92;100578.75;4156666;28;20944;-64
2022/10/12 07:31:53;;;;;;;9.70;4.27;;;;;;;18.38;45.25;100559.16;4151200;28;20247;-64
2022/10/12 07:33:54;;;;;;;6.93;4.20;;;;;;;18.68;44.97;100540.19;4154277;28;20225;-64
2022/10/12 07:35:56;;;;;;;12.97;4.50;;;;;;;17.69;46.03;100605.25;4149453;28;20225;-65
2022/10/12 07:38:14;;;;;;;9.50;4.27;;;;;;;18.33;45.85;100542.72;4157856;28;20266;-65
2022/10/12 07:40:16;;;;;;;8.03;4.10;;;;;;;17.89;45.57;100585.88;4157361;28;20225;-64
2022/10/12 07:42:18;;;;;;;9.93;3.90;;;;;;;18.51;45.46;100525.28;4146717;28;20271;-65
2022/10/12 07:44:21;;;;;;;10.87;4.60;;;;;;;18.24;45.55;100557.34;4154309;28;20229;-65
2022/10/12 07:46:24;;;;;;;11.27;5.27;;;;;;;18.48;45.34;100537.28;4150214;28;20225;-63
2022/10/12 07:48:25;;;;;;;18.40;5.80;;;;;;;18.27;46.09;100556.13;4149599;28;20757;-63
2022/10/12 07:50:27;;;;;;;13.67;5.93;;;;;;;18.13;45.91;100568.59;4155911;28;20320;-63
2022/10/12 07:52:31;;;;;;;15.30;5.67;;;;;;;18.03;46.17;100569.69;4156488;28;20235;-64
2022/10/12 07:54:32;;;;;;;20.73;7.83;;;;;;;17.67;47.10;100585.78;4153773;28;20320;-63
2022/10/12 07:56:34;;;;;;;23.33;7.23;;;;;;;17.80;47.13;100585.97;4145043;28;20351;-63
2022/10/12 07:58:36;;;;;;;17.60;6.90;;;;;;;17.60;47.46;100584.84;4151514;28;20252;-63
2022/10/12 08:00:38;;;;;;;20.67;7.23;;;;;;;18.65;46.19;100502.84;4156913;28;20638;-63
2022/10/12 08:02:39;;;;;;;21.63;7.57;;;;;;;18.00;47.30;100562.00;4157612;28;20243;-63
2022/10/12 08:04:41;;;;;;;21.37;7.47;;;;;;;17.53;48.86;100565.94;4153683;28;20327;-63
2022/10/12 08:06:43;;;;;;;20.33;7.30;;;;;;;18.85;46.14;100491.44;4154257;28;20228;-63
2022/10/12 08:08:44;;;;;;;23.93;8.70;;;;;;;18.50;46.65;100537.94;4151402;28;20693;-63
2022/10/12 08:10:46;;;;;;;20.50;7.07;;;;;;;18.28;47.18;100552.41;4153652;28;20804;-63
2022/10/12 08:12:48;;;;;;;20.50;8.10;;;;;;;18.62;47.13;100513.19;4159398;28;20246;-63
2022/10/12 08:14:52;;;;;;;19.30;8.43;;;;;;;18.42;47.26;100548.00;4155125;28;20265;-63
2022/10/12 08:16:54;;;;;;;26.10;9.43;;;;;;;18.45;47.63;100551.13;4155107;28;20237;-64
2022/10/12 08:18:55;;;;;;;17.17;7.73;;;;;;;18.57;46.92;100543.38;4159450;28;20330;-63
2022/10/12 08:20:57;;;;;;;61.83;14.80;;;;;;;18.32;47.70;100569.84;4152141;28;20619;-63
2022/10/12 08:22:58;;;;;;;20.73;8.10;;;;;;;18.35;46.90;100575.69;4157064;28;20252;-63
2022/10/12 08:25:00;;;;;;;22.23;8.43;;;;;;;18.87;46.81;100525.25;4146808;28;20253;-63
2022/10/12 08:27:02;;;;;;;18.17;7.37;;;;;;;18.55;46.57;100592.03;4146800;28;20240;-63
2022/10/12 08:29:05;;;;;;;21.63;8.03;;;;;;;19.13;46.18;100524.63;4154122;28;20236;-63
2022/10/12 08:31:10;;;;;;;18.73;8.20;;;;;;;18.93;46.63;100558.66;4143166;28;20319;-63
2022/10/12 08:33:13;;;;;;;21.50;7.77;;;;;;;18.77;47.06;100565.94;4148796;28;20240;-63
2022/10/12 08:35:14;;;;;;;21.57;7.50;;;;;;;19.12;46.36;100536.41;4154622;28;20240;-63
2022/10/12 08:37:16;;;;;;;23.80;8.83;;;;;;;18.69;47.31;100576.84;4154224;28;20331;-63
2022/10/12 08:39:17;;;;;;;23.50;8.80;;;;;;;18.51;47.02;100598.00;4152718;28;20233;-64
2022/10/12 08:41:22;;;;;;;20.57;8.83;;;;;;;18.43;48.14;100547.00;4148541;28;20231;-64
2022/10/12 08:43:23;;;;;;;24.87;8.83;;;;;;;19.39;46.40;100511.50;4136823;28;20436;-63
2022/10/12 08:45:40;;;;;;;22.97;9.93;;;;;;;18.57;47.46;100591.84;4151302;28;20231;-63
2022/10/12 08:47:50;;;;;;;20.67;9.40;;;;;;;18.69;48.27;100555.28;4146103;28;20319;-64
2022/10/12 08:49:52;;;;;;;22.83;9.70;;;;;;;19.25;46.98;100530.28;4152037;28;20229;-63
2022/10/12 08:51:56;;;;;;;21.70;9.17;;;;;;;19.19;46.96;100535.63;4146882;28;20316;-63
2022/10/12 08:54:06;;;;;;;24.33;10.03;;;;;;;19.66;46.37;100507.09;4159752;28;20339;-63
2022/10/12 08:56:08;;;;;;;21.63;9.13;;;;;;;19.28;46.85;100534.44;4145279;28;20228;-65
2022/10/12 08:58:15;;;;;;;21.83;9.57;;;;;;;19.38;46.55;100542.19;4144806;28;20253;-64
2022/10/12 09:00:17;;;;;;;20.23;9.20;;;;;;;19.93;45.70;100513.44;4152230;28;20264;-64
2022/10/12 09:02:48;;;;;;;25.17;8.80;;;;;;;19.52;46.52;100568.19;4152006;28;20232;-64
2022/10/12 09:05:00;;;;;;;26.10;8.63;;;;;;;19.60;47.13;100537.56;4148876;28;20240;-64
2022/10/12 09:07:16;;;;;;;26.53;9.33;;;;;;;19.34;46.84;100574.13;4152684;28;20232;-64
2022/10/12 09:09:47;;;;;;;25.03;9.47;;;;;;;19.31;46.65;100577.19;4148078;28;20240;-65
2022/10/12 09:12:16;;;;;;;21.70;8.37;;;;;;;19.85;46.67;100519.81;4150349;28;20229;-65
2022/10/12 09:14:29;;;;;;;21.50;8.83;;;;;;;20.10;46.14;100510.38;4136009;28;20336;-64
2022/10/12 09:16:35;;;;;;;21.33;8.57;;;;;;;20.00;45.87;100526.94;4141198;28;20233;-65
2022/10/12 09:18:40;;;;;;;19.20;8.70;;;;;;;19.85;46.01;100546.00;4148513;28;20240;-64
2022/10/12 09:20:50;;;;;;;19.97;7.97;;;;;;;20.23;45.88;100516.63;4152310;28;20780;-64
2022/10/12 09:23:01;;;;;;;18.60;8.03;;;;;;;20.51;45.41;100509.44;4147891;28;20237;-64
2022/10/12 09:25:10;;;;;;;14.53;7.20;;;;;;;20.48;45.04;100526.88;4152477;28;20237;-64
2022/10/12 09:27:14;;;;;;;20.10;9.20;;;;;;;20.55;45.08;100518.78;4153491;28;20724;-64
2022/10/12 09:29:25;;;;;;;22.87;8.93;;;;;;;20.45;45.29;100538.13;4152906;28;20239;-65
2022/10/12 09:31:46;;;;;;;14.73;8.93;;;;;;;19.98;45.86;100575.75;4133407;28;20340;-65
2022/10/12 09:33:59;;;;;;;18.13;8.93;;;;;;;20.12;45.61;100559.59;4156087;28;20320;-64
2022/10/12 09:36:00;;;;;;;18.03;8.60;;;;;;;19.81;46.62;100561.75;4146810;28;20257;-65
2022/10/12 09:38:02;;;;;;;20.17;8.57;;;;;;;19.34;47.71;100582.19;4152577;28;20694;-65